createdAt,value
2019-02-19T00:00:38.862Z,95.80
2019-02-19T00:03:07.274Z,96.10
2019-02-19T00:05:35.697Z,96.20
2019-02-19T00:08:04.149Z,96.30
2019-02-19T00:10:32.545Z,96.20
2019-02-19T00:13:00.956Z,96.30
2019-02-19T00:15:29.428Z,96.30
2019-02-19T00:17:57.832Z,96.30
2019-02-19T00:20:26.242Z,96.40
2019-02-19T00:22:54.645Z,96.40
2019-02-19T00:25:23.047Z,96.70
2019-02-19T00:27:51.484Z,96.30
2019-02-19T00:30:19.880Z,96.40
2019-02-19T00:32:48.284Z,96.40
2019-02-19T00:35:16.717Z,96.50
2019-02-19T00:37:45.120Z,96.50
2019-02-19T00:40:13.548Z,96.60
2019-02-19T00:42:42.016Z,96.60
2019-02-19T00:45:16.460Z,96.60
2019-02-19T00:47:40.508Z,96.60
2019-02-19T00:50:08.917Z,96.60
2019-02-19T00:52:37.412Z,96.70
2019-02-19T00:55:06.355Z,96.80
2019-02-19T00:57:34.757Z,97.00
2019-02-19T01:00:03.629Z,96.70
2019-02-19T01:02:32.024Z,96.70
2019-02-19T01:05:00.460Z,96.80
2019-02-19T01:07:28.863Z,96.80
2019-02-19T01:09:57.264Z,96.70
2019-02-19T01:12:25.676Z,96.80
2019-02-19T01:14:54.140Z,96.80
2019-02-19T01:17:22.593Z,96.70
2019-02-19T01:19:50.969Z,96.70
2019-02-19T01:22:19.476Z,96.70
2019-02-19T01:24:47.956Z,96.70
2019-02-19T01:27:16.469Z,96.70
2019-02-19T01:29:44.903Z,96.70
2019-02-19T01:32:13.369Z,96.70
2019-02-19T01:34:41.768Z,96.70
2019-02-19T01:37:10.180Z,96.70
2019-02-19T01:39:38.589Z,96.70
2019-02-19T01:42:07.091Z,96.60
2019-02-19T01:44:35.481Z,96.60
2019-02-19T01:47:03.894Z,96.70
2019-02-19T01:49:32.307Z,96.70
2019-02-19T01:52:00.706Z,96.60
2019-02-19T01:54:29.145Z,96.60
2019-02-19T01:56:57.546Z,96.70
2019-02-19T01:59:25.932Z,96.70
2019-02-19T02:01:54.340Z,96.70
2019-02-19T02:04:22.740Z,96.80
2019-02-19T02:06:51.172Z,96.80
2019-02-19T02:09:19.648Z,96.90
2019-02-19T02:11:48.054Z,96.90
2019-02-19T02:14:16.466Z,96.90
2019-02-19T02:16:44.864Z,96.90
2019-02-19T02:19:13.313Z,96.90
2019-02-19T02:21:41.718Z,96.90
2019-02-19T02:24:10.092Z,96.90
2019-02-19T02:26:38.497Z,97.00
2019-02-19T02:29:06.904Z,97.00
2019-02-19T02:31:35.349Z,97.10
2019-02-19T02:34:03.751Z,97.10
2019-02-19T02:36:32.279Z,97.10
2019-02-19T02:39:00.853Z,97.10
2019-02-19T02:41:29.319Z,97.20
2019-02-19T02:43:57.779Z,97.20
2019-02-19T02:46:26.186Z,97.30
2019-02-19T02:48:54.584Z,97.30
2019-02-19T02:51:22.993Z,97.40
2019-02-19T02:53:51.412Z,97.40
2019-02-19T02:56:19.878Z,97.40
2019-02-19T02:58:48.265Z,97.50
2019-02-19T03:01:16.684Z,97.60
2019-02-19T03:03:45.077Z,97.60
2019-02-19T03:06:17.933Z,97.60
2019-02-19T03:08:46.445Z,97.70
2019-02-19T03:11:14.849Z,97.80
2019-02-19T03:13:43.269Z,97.90
2019-02-19T03:16:11.753Z,97.90
2019-02-19T03:18:40.160Z,98.00
2019-02-19T03:21:08.593Z,98.00
2019-02-19T03:23:37.004Z,98.10
2019-02-19T03:26:05.409Z,98.10
2019-02-19T03:28:33.826Z,98.30
2019-02-19T03:31:02.305Z,98.30
2019-02-19T03:33:30.738Z,98.40
2019-02-19T03:35:59.144Z,98.50
2019-02-19T03:38:27.548Z,98.60
2019-02-19T03:40:55.958Z,98.70
2019-02-19T03:43:24.356Z,98.90
2019-02-19T03:45:52.792Z,98.90
2019-02-19T03:48:21.204Z,99.00
2019-02-19T03:50:49.609Z,99.10
2019-02-19T03:53:18.019Z,99.30
2019-02-19T03:55:46.492Z,99.70
2019-02-19T03:58:14.920Z,99.50
2019-02-19T04:00:43.329Z,99.60
2019-02-19T04:03:11.732Z,99.70
2019-02-19T04:05:40.144Z,99.70
2019-02-19T04:08:08.553Z,99.90
2019-02-19T04:10:37.054Z,99.90
2019-02-19T04:13:05.466Z,99.90
2019-02-19T04:15:34.040Z,99.90
2019-02-19T04:18:02.500Z,99.90
2019-02-19T04:20:30.952Z,99.90
2019-02-19T04:22:59.397Z,99.90
2019-02-19T04:25:27.796Z,99.90
2019-02-19T04:27:56.199Z,99.90
2019-02-19T04:30:24.665Z,99.90
2019-02-19T04:32:53.065Z,99.90
2019-02-19T04:35:21.505Z,99.90
2019-02-19T04:37:49.905Z,99.90
2019-02-19T04:40:18.308Z,99.90
2019-02-19T04:42:46.717Z,99.90
2019-02-19T04:45:15.130Z,99.90
2019-02-19T04:47:43.596Z,99.90
2019-02-19T04:50:12.053Z,99.90
2019-02-19T04:52:40.502Z,99.90
2019-02-19T04:55:09.036Z,99.90
2019-02-19T04:57:37.439Z,99.90
2019-02-19T05:00:09.440Z,99.90
2019-02-19T05:02:38.141Z,99.90
2019-02-19T05:05:07.938Z,99.90
2019-02-19T05:07:37.006Z,99.90
2019-02-19T05:10:08.373Z,99.90
2019-02-19T05:12:36.805Z,99.90
2019-02-19T05:15:08.521Z,99.90
2019-02-19T05:17:39.078Z,99.90
2019-02-19T05:20:08.984Z,99.90
2019-02-19T05:22:37.392Z,99.90
2019-02-19T05:25:07.373Z,99.90
2019-02-19T05:27:35.812Z,99.90
2019-02-19T05:30:06.052Z,99.90
2019-02-19T05:32:34.460Z,99.90
2019-02-19T05:35:03.090Z,99.90
2019-02-19T05:37:31.862Z,99.90
2019-02-19T05:40:00.264Z,99.90
2019-02-19T05:42:29.857Z,99.90
2019-02-19T05:44:58.253Z,99.90
2019-02-19T05:47:26.975Z,99.90
2019-02-19T05:49:55.401Z,99.90
2019-02-19T05:52:23.813Z,99.90
2019-02-19T05:54:54.004Z,99.90
2019-02-19T05:57:22.408Z,99.90
2019-02-19T05:59:51.212Z,99.90
2019-02-19T06:02:19.749Z,99.90
2019-02-19T06:04:48.157Z,99.90
2019-02-19T06:07:18.961Z,99.90
2019-02-19T06:09:47.761Z,99.90
2019-02-19T06:12:16.180Z,99.90
2019-02-19T06:14:44.652Z,99.90
2019-02-19T06:17:13.357Z,99.90
2019-02-19T06:19:43.140Z,99.90
2019-02-19T06:22:12.163Z,99.90
2019-02-19T06:24:40.632Z,99.90
2019-02-19T06:27:09.453Z,99.90
2019-02-19T06:29:40.356Z,99.90
2019-02-19T06:32:09.160Z,99.90
2019-02-19T06:34:37.560Z,99.90
2019-02-19T06:37:05.968Z,99.90
2019-02-19T06:39:34.381Z,99.90
2019-02-19T06:42:03.148Z,99.90
2019-02-19T06:44:31.576Z,99.90
2019-02-19T06:47:06.644Z,99.90
2019-02-19T06:49:31.307Z,99.90
2019-02-19T06:51:59.709Z,99.90
2019-02-19T06:54:28.113Z,99.90
2019-02-19T06:56:56.628Z,99.90
2019-02-19T06:59:25.165Z,99.90
2019-02-19T07:02:13.125Z,99.90
2019-02-19T07:04:43.186Z,99.90
2019-02-19T07:07:11.594Z,99.90
2019-02-19T07:09:40.953Z,99.90
2019-02-19T07:12:09.929Z,99.90
2019-02-19T07:14:38.705Z,99.90
2019-02-19T07:17:15.283Z,99.90
2019-02-19T07:19:38.228Z,99.90
2019-02-19T07:22:06.641Z,99.90
2019-02-19T07:24:35.045Z,99.90
2019-02-19T07:27:03.471Z,99.90
2019-02-19T07:29:31.875Z,99.90
2019-02-19T07:32:03.377Z,99.90
2019-02-19T07:34:33.960Z,99.90
2019-02-19T07:37:04.452Z,99.90
2019-02-19T07:39:32.906Z,99.90
2019-02-19T07:42:01.500Z,99.90
2019-02-19T07:44:29.900Z,99.90
2019-02-19T07:46:58.596Z,99.90
2019-02-19T07:49:26.997Z,99.90
2019-02-19T07:51:55.429Z,99.90
2019-02-19T07:54:23.845Z,99.90
2019-02-19T07:56:52.471Z,99.90
2019-02-19T07:59:20.882Z,99.90
2019-02-19T08:01:49.319Z,99.90
2019-02-19T08:04:17.847Z,99.90
2019-02-19T08:06:46.246Z,99.90
2019-02-19T08:09:14.648Z,99.90
2019-02-19T08:11:43.289Z,99.80
2019-02-19T08:14:12.657Z,99.50
2019-02-19T08:16:41.362Z,99.80
2019-02-19T08:19:09.771Z,99.70
2019-02-19T08:21:38.174Z,99.90
2019-02-19T08:24:06.588Z,99.90
2019-02-19T08:26:35.396Z,99.90
2019-02-19T08:29:13.221Z,99.90
2019-02-19T08:31:34.018Z,99.90
2019-02-19T08:34:02.438Z,99.90
2019-02-19T08:36:31.815Z,99.80
2019-02-19T08:39:00.214Z,99.70
2019-02-19T08:41:29.242Z,99.60
2019-02-19T08:43:57.950Z,99.60
2019-02-19T08:46:26.352Z,99.50
2019-02-19T08:48:54.911Z,99.40
2019-02-19T08:51:23.313Z,99.30
2019-02-19T08:53:52.332Z,99.20
2019-02-19T08:56:20.785Z,99.20
2019-02-19T08:58:49.248Z,99.20
2019-02-19T09:01:17.716Z,99.00
2019-02-19T09:03:46.468Z,98.90
2019-02-19T09:06:14.887Z,98.90
2019-02-19T09:08:43.289Z,98.60
2019-02-19T09:11:11.696Z,98.60
2019-02-19T09:13:40.114Z,98.50
2019-02-19T09:16:09.521Z,98.10
2019-02-19T09:18:38.609Z,98.10
2019-02-19T09:21:07.101Z,98.00
2019-02-19T09:23:35.488Z,97.80
2019-02-19T09:26:04.269Z,97.90
2019-02-19T09:28:33.657Z,97.80
2019-02-19T09:31:02.090Z,97.70
2019-02-19T09:33:30.492Z,97.60
2019-02-19T09:35:58.899Z,97.50
2019-02-19T09:38:27.312Z,97.30
2019-02-19T09:40:55.784Z,97.20
2019-02-19T09:43:24.188Z,97.30
2019-02-19T09:45:52.635Z,97.00
2019-02-19T09:48:21.028Z,96.90
2019-02-19T09:50:49.436Z,96.80
2019-02-19T09:53:17.850Z,97.00
2019-02-19T09:55:46.294Z,96.80
2019-02-19T09:58:14.696Z,96.70
2019-02-19T10:00:43.200Z,96.70
2019-02-19T10:03:11.681Z,96.60
2019-02-19T10:05:40.091Z,96.50
2019-02-19T10:08:08.497Z,96.50
2019-02-19T10:10:36.909Z,96.40
2019-02-19T10:13:05.353Z,96.30
2019-02-19T10:15:33.761Z,96.10
2019-02-19T10:18:09.967Z,96.10
2019-02-19T10:20:32.235Z,96.10
2019-02-19T10:23:00.689Z,95.90
2019-02-19T10:25:29.125Z,95.70
2019-02-19T10:27:57.604Z,95.90
2019-02-19T10:30:26.004Z,95.60
2019-02-19T10:32:54.411Z,94.80
2019-02-19T10:35:22.818Z,94.70
2019-02-19T10:37:51.771Z,95.20
2019-02-19T10:40:21.092Z,95.20
2019-02-19T10:42:49.497Z,95.00
2019-02-19T10:45:24.994Z,94.90
2019-02-19T10:47:53.389Z,94.70
2019-02-19T10:50:21.821Z,94.70
2019-02-19T10:52:51.702Z,94.70
2019-02-19T10:55:20.405Z,94.60
2019-02-19T10:57:48.816Z,94.70
2019-02-19T11:00:19.320Z,94.40
2019-02-19T11:02:47.754Z,94.30
2019-02-19T11:05:16.228Z,94.30
2019-02-19T11:07:44.632Z,94.30
2019-02-19T11:10:14.692Z,93.80
2019-02-19T11:12:43.104Z,93.40
2019-02-19T11:15:12.970Z,92.60
2019-02-19T11:17:41.408Z,92.40
2019-02-19T11:20:12.152Z,91.50
2019-02-19T11:22:40.571Z,91.00
2019-02-19T11:25:11.501Z,90.80
2019-02-19T11:27:39.972Z,90.80
2019-02-19T11:30:20.425Z,90.40
2019-02-19T11:32:49.165Z,88.20
2019-02-19T11:35:17.568Z,86.00
2019-02-19T11:37:45.974Z,83.40
2019-02-19T11:40:14.844Z,84.00
2019-02-19T11:42:43.289Z,85.40
2019-02-19T11:45:14.200Z,88.10
2019-02-19T11:47:42.592Z,89.50
2019-02-19T11:50:12.567Z,88.10
2019-02-19T11:52:41.042Z,88.40
2019-02-19T11:55:11.996Z,88.90
2019-02-19T11:57:40.440Z,89.90
2019-02-19T12:00:13.674Z,90.00
2019-02-19T12:02:42.077Z,89.50
2019-02-19T12:05:10.480Z,89.50
2019-02-19T12:07:38.890Z,89.40
2019-02-19T12:10:08.844Z,90.00
2019-02-19T12:12:37.251Z,89.50
2019-02-19T12:15:08.688Z,88.50
2019-02-19T12:17:37.090Z,88.50
2019-02-19T12:20:07.729Z,88.60
2019-02-19T12:22:36.233Z,89.80
2019-02-19T12:25:05.969Z,90.10
2019-02-19T12:27:34.370Z,90.00
2019-02-19T12:30:03.041Z,90.50
2019-02-19T12:32:31.525Z,90.70
2019-02-19T12:34:59.949Z,90.80
2019-02-19T12:37:28.370Z,90.80
2019-02-19T12:39:56.818Z,91.20
2019-02-19T12:42:25.234Z,90.90
2019-02-19T12:44:53.640Z,90.90
2019-02-19T12:47:22.069Z,90.90
2019-02-19T12:49:50.612Z,90.90
2019-02-19T12:52:19.100Z,90.80
2019-02-19T12:54:47.514Z,90.70
2019-02-19T12:57:15.917Z,90.80
2019-02-19T12:59:44.357Z,90.70
2019-02-19T13:02:12.788Z,90.70
2019-02-19T13:04:41.187Z,90.70
2019-02-19T13:07:09.593Z,90.60
2019-02-19T13:09:38.001Z,90.90
2019-02-19T13:12:06.425Z,90.70
2019-02-19T13:14:34.870Z,90.70
2019-02-19T13:17:03.276Z,90.80
2019-02-19T13:19:32.124Z,90.80
2019-02-19T13:22:00.593Z,91.20
2019-02-19T13:24:29.032Z,90.80
2019-02-19T13:26:57.441Z,90.90
2019-02-19T13:29:25.843Z,90.80
2019-02-19T13:31:54.245Z,90.80
2019-02-19T13:34:22.666Z,90.80
2019-02-19T13:36:51.097Z,90.90
2019-02-19T13:39:19.557Z,90.90
2019-02-19T13:41:48.024Z,91.00
2019-02-19T13:44:16.429Z,90.80
2019-02-19T13:46:44.848Z,90.80
2019-02-19T13:49:13.327Z,90.70
2019-02-19T13:51:41.749Z,90.70
2019-02-19T13:54:11.796Z,90.60
2019-02-19T13:56:40.200Z,90.60
2019-02-19T13:59:08.600Z,90.90
2019-02-19T14:01:37.100Z,90.60
2019-02-19T14:04:05.506Z,90.60
2019-02-19T14:06:33.901Z,90.60
2019-02-19T14:09:02.384Z,90.50
2019-02-19T14:11:30.852Z,90.50
2019-02-19T14:14:00.916Z,90.80
2019-02-19T14:16:30.960Z,90.40
2019-02-19T14:19:01.001Z,90.50
2019-02-19T14:21:45.934Z,90.50
2019-02-19T14:24:31.312Z,90.50
2019-02-19T14:27:07.316Z,90.60
2019-02-19T14:29:52.444Z,90.60
2019-02-19T14:32:22.485Z,90.60
2019-02-19T14:35:08.850Z,90.60
2019-02-19T14:37:55.072Z,90.60
2019-02-19T14:40:40.180Z,90.60
2019-02-19T14:43:16.444Z,90.70
2019-02-19T14:45:52.367Z,90.70
2019-02-19T14:48:22.398Z,90.70
2019-02-19T14:51:10.504Z,91.00
2019-02-19T14:53:43.272Z,90.70
2019-02-19T14:56:13.306Z,90.70
2019-02-19T14:58:46.292Z,90.70
2019-02-19T15:01:32.708Z,90.70
2019-02-19T15:04:11.617Z,90.70
2019-02-19T15:06:56.708Z,90.70
2019-02-19T15:09:29.577Z,90.90
2019-02-19T15:12:02.361Z,90.70
2019-02-19T15:14:32.409Z,90.60
2019-02-19T15:17:17.548Z,90.60
2019-02-19T15:19:59.572Z,90.60
2019-02-19T15:22:45.750Z,90.60
2019-02-19T15:25:31.793Z,90.60
2019-02-19T15:28:10.921Z,90.60
2019-02-19T15:30:49.743Z,90.60
2019-02-19T15:33:35.973Z,90.70
2019-02-19T15:36:06.029Z,90.70
2019-02-19T15:38:38.984Z,90.60
2019-02-19T15:41:11.997Z,91.00
2019-02-19T15:43:44.768Z,90.70
2019-02-19T15:46:17.980Z,90.70
2019-02-19T15:48:48.092Z,90.80
2019-02-19T15:51:30.096Z,90.80
2019-02-19T15:54:16.401Z,90.80
2019-02-19T15:56:55.496Z,90.80
2019-02-19T15:59:28.285Z,90.80
2019-02-19T16:02:14.500Z,90.60
2019-02-19T16:04:44.545Z,90.60
2019-02-19T16:07:23.605Z,90.50
2019-02-19T16:09:59.580Z,90.50
2019-02-19T16:12:29.637Z,90.50
2019-02-19T16:15:05.688Z,90.40
2019-02-19T16:17:41.783Z,90.70
2019-02-19T16:20:14.775Z,90.30
2019-02-19T16:22:44.800Z,90.20
2019-02-19T16:25:31.411Z,90.20
2019-02-19T16:28:09.922Z,90.10
2019-02-19T16:30:48.709Z,90.20
2019-02-19T16:33:37.192Z,90.10
2019-02-19T16:36:23.498Z,90.20
2019-02-19T16:39:09.556Z,90.30
2019-02-19T16:41:39.621Z,90.70
2019-02-19T16:44:09.663Z,91.20
2019-02-19T16:46:42.820Z,91.40
2019-02-19T16:49:12.878Z,91.60
2019-02-19T16:51:42.906Z,91.90
2019-02-19T16:54:12.956Z,92.10
2019-02-19T16:56:45.789Z,92.30
2019-02-19T16:59:18.628Z,92.40
2019-02-19T17:02:00.490Z,92.80
2019-02-19T17:04:30.560Z,93.10
2019-02-19T17:07:09.617Z,93.70
2019-02-19T17:09:39.757Z,93.90
2019-02-19T17:12:09.820Z,94.00
2019-02-19T17:14:45.898Z,94.00
2019-02-19T17:17:15.945Z,93.90
2019-02-19T17:19:52.038Z,94.30
2019-02-19T17:22:24.610Z,94.40
2019-02-19T17:25:03.793Z,94.10
2019-02-19T17:27:33.816Z,94.20
2019-02-19T17:30:10.175Z,94.20
2019-02-19T17:32:45.748Z,94.20
2019-02-19T17:35:15.831Z,94.30
2019-02-19T17:37:48.576Z,94.30
2019-02-19T17:40:21.478Z,94.50
2019-02-19T17:42:54.265Z,94.40
2019-02-19T17:45:24.308Z,94.40
2019-02-19T17:48:03.672Z,94.60
2019-02-19T17:50:48.860Z,94.60
2019-02-19T17:53:18.900Z,94.70
2019-02-19T17:55:51.391Z,94.70
2019-02-19T17:58:21.428Z,94.80
2019-02-19T18:00:51.472Z,94.80
2019-02-19T18:03:33.917Z,94.90
2019-02-19T18:06:19.077Z,94.90
2019-02-19T18:08:49.128Z,94.90
2019-02-19T18:11:19.175Z,94.90
2019-02-19T18:14:05.469Z,94.80
2019-02-19T18:16:35.526Z,94.80
2019-02-19T18:19:03.917Z,95.00
2019-02-19T18:21:32.313Z,94.80
2019-02-19T18:24:00.746Z,94.70
2019-02-19T18:26:29.145Z,94.70
2019-02-19T18:28:57.553Z,94.70
2019-02-19T18:31:25.989Z,94.70
2019-02-19T18:33:54.395Z,94.70
2019-02-19T18:36:22.822Z,94.70
2019-02-19T18:38:51.232Z,94.60
2019-02-19T18:41:19.704Z,94.40
2019-02-19T18:43:48.105Z,94.50
2019-02-19T18:46:16.557Z,94.40
2019-02-19T18:48:45.082Z,94.20
2019-02-19T18:51:13.471Z,94.20
2019-02-19T18:53:41.864Z,94.20
2019-02-19T18:56:10.269Z,94.20
2019-02-19T18:58:38.680Z,94.00
2019-02-19T19:01:08.577Z,94.10
2019-02-19T19:03:37.189Z,94.00
2019-02-19T19:06:05.596Z,93.90
2019-02-19T19:08:34.025Z,94.00
2019-02-19T19:11:02.423Z,94.00
2019-02-19T19:13:30.857Z,94.00
2019-02-19T19:15:59.325Z,93.90
2019-02-19T19:18:27.726Z,93.80
2019-02-19T19:20:56.160Z,93.80
2019-02-19T19:23:24.544Z,93.90
2019-02-19T19:25:52.967Z,93.90
2019-02-19T19:28:21.357Z,93.90
2019-02-19T19:30:49.857Z,93.90
2019-02-19T19:33:18.329Z,94.00
2019-02-19T19:35:46.730Z,93.80
2019-02-19T19:38:15.157Z,93.80
2019-02-19T19:40:43.560Z,93.90
2019-02-19T19:43:11.958Z,93.80
2019-02-19T19:45:40.360Z,93.90
2019-02-19T19:48:08.756Z,93.80
2019-02-19T19:50:37.202Z,94.00
2019-02-19T19:53:05.627Z,93.80
2019-02-19T19:55:34.028Z,93.80
2019-02-19T19:58:02.453Z,93.80
2019-02-19T20:00:30.853Z,93.80
2019-02-19T20:02:59.280Z,93.80
2019-02-19T20:05:27.684Z,93.60
2019-02-19T20:07:56.088Z,93.70
2019-02-19T20:10:24.495Z,93.60
2019-02-19T20:12:52.914Z,93.60
2019-02-19T20:15:21.325Z,93.70
2019-02-19T20:17:49.723Z,93.60
2019-02-19T20:20:18.211Z,93.60
2019-02-19T20:22:46.612Z,93.60
2019-02-19T20:25:15.051Z,93.60
2019-02-19T20:27:43.463Z,93.70
2019-02-19T20:30:16.541Z,93.70
2019-02-19T20:32:44.947Z,93.70
2019-02-19T20:35:13.350Z,93.70
2019-02-19T20:37:41.743Z,93.80
2019-02-19T20:40:11.388Z,94.00
2019-02-19T20:42:39.869Z,94.10
2019-02-19T20:45:10.518Z,94.20
2019-02-19T20:47:38.954Z,94.30
2019-02-19T20:50:09.718Z,94.30
2019-02-19T20:52:38.118Z,94.30
2019-02-19T20:55:09.299Z,94.40
2019-02-19T20:57:37.097Z,94.50
2019-02-19T21:00:09.752Z,94.40
2019-02-19T21:02:38.140Z,94.40
2019-02-19T21:05:09.256Z,94.30
2019-02-19T21:07:37.681Z,94.40
2019-02-19T21:10:14.420Z,94.70
2019-02-19T21:12:42.840Z,94.40
2019-02-19T21:15:11.238Z,94.40
2019-02-19T21:17:39.653Z,94.40
2019-02-19T21:20:09.937Z,94.40
2019-02-19T21:22:38.336Z,94.50
2019-02-19T21:25:08.473Z,94.50
2019-02-19T21:27:36.904Z,94.70
2019-02-19T21:30:15.660Z,94.80
2019-02-19T21:32:44.101Z,95.00
2019-02-19T21:35:12.503Z,94.90
2019-02-19T21:37:40.997Z,95.00
2019-02-19T21:40:16.256Z,95.10
2019-02-19T21:42:44.650Z,95.00
2019-02-19T21:45:14.096Z,95.00
2019-02-19T21:47:42.517Z,94.90
2019-02-19T21:50:12.220Z,95.10
2019-02-19T21:52:40.694Z,94.90
2019-02-19T21:55:10.485Z,94.90
2019-02-19T21:57:38.885Z,94.90
2019-02-19T22:00:10.094Z,94.90
2019-02-19T22:02:37.835Z,94.90
2019-02-19T22:05:07.264Z,94.90
2019-02-19T22:07:35.670Z,94.90
2019-02-19T22:10:06.662Z,94.80
2019-02-19T22:12:35.060Z,94.90
2019-02-19T22:15:03.952Z,95.00
2019-02-19T22:17:32.424Z,95.00
2019-02-19T22:20:03.218Z,95.10
2019-02-19T22:22:30.969Z,95.20
2019-02-19T22:24:59.372Z,95.40
2019-02-19T22:27:27.820Z,95.70
2019-02-19T22:29:56.200Z,96.00
2019-02-19T22:32:24.689Z,96.20
2019-02-19T22:34:53.089Z,96.30
2019-02-19T22:37:21.502Z,96.30
2019-02-19T22:39:49.932Z,96.40
2019-02-19T22:42:18.342Z,96.40
2019-02-19T22:44:46.804Z,96.40
2019-02-19T22:47:15.257Z,96.40
2019-02-19T22:49:43.662Z,96.40
2019-02-19T22:52:12.750Z,96.50
2019-02-19T22:54:42.946Z,96.40
2019-02-19T22:57:11.361Z,96.30
2019-02-19T22:59:39.775Z,96.20
2019-02-19T23:02:20.336Z,96.10
2019-02-19T23:04:48.821Z,96.10
2019-02-19T23:07:17.222Z,96.30
2019-02-19T23:09:45.722Z,96.30
2019-02-19T23:12:14.116Z,96.20
2019-02-19T23:14:42.524Z,96.30
2019-02-19T23:17:10.924Z,96.20
2019-02-19T23:19:39.333Z,96.10
2019-02-19T23:22:07.772Z,96.00
2019-02-19T23:24:36.152Z,95.90
2019-02-19T23:27:04.567Z,96.00
2019-02-19T23:29:32.954Z,95.90
2019-02-19T23:32:01.390Z,95.90
2019-02-19T23:34:29.817Z,95.90
2019-02-19T23:36:59.784Z,95.90
2019-02-19T23:39:28.188Z,95.80
2019-02-19T23:41:56.598Z,95.70
2019-02-19T23:44:25.007Z,95.50
2019-02-19T23:46:53.428Z,95.60
2019-02-19T23:49:21.839Z,95.60
2019-02-19T23:51:50.237Z,95.50
2019-02-19T23:54:18.636Z,95.70
2019-02-19T23:56:47.953Z,95.70
2019-02-19T23:59:16.401Z,95.70
